createdAt,value
2023-02-12T00:00:34.882Z,19.37
2023-02-12T00:03:21.187Z,19.97
2023-02-12T00:06:08.649Z,17.67
2023-02-12T00:08:56.929Z,19.57
2023-02-12T00:11:43.221Z,20.00
2023-02-12T00:14:29.804Z,20.47
2023-02-12T00:17:17.622Z,19.67
2023-02-12T00:20:04.270Z,22.10
2023-02-12T00:22:50.556Z,21.40
2023-02-12T00:25:36.939Z,18.57
2023-02-12T00:28:23.728Z,16.93
2023-02-12T00:31:11.767Z,18.43
2023-02-12T00:34:00.696Z,18.17
2023-02-12T00:36:47.333Z,17.37
2023-02-12T00:39:36.548Z,17.93
2023-02-12T00:42:23.353Z,17.53
2023-02-12T00:45:10.768Z,16.93
2023-02-12T00:47:57.042Z,17.20
2023-02-12T00:50:47.600Z,17.43
2023-02-12T00:53:34.781Z,18.20
2023-02-12T00:56:21.614Z,17.23
2023-02-12T00:59:08.323Z,18.10
2023-02-12T01:01:56.389Z,17.20
2023-02-12T01:04:43.269Z,17.53
2023-02-12T01:07:30.934Z,17.50
2023-02-12T01:10:17.902Z,17.03
2023-02-12T01:13:04.254Z,18.60
2023-02-12T01:15:50.654Z,17.20
2023-02-12T01:18:38.036Z,16.50
2023-02-12T01:21:26.858Z,16.40
2023-02-12T01:24:15.060Z,16.40
2023-02-12T01:27:01.367Z,17.23
2023-02-12T01:29:47.753Z,16.80
2023-02-12T01:32:34.927Z,16.33
2023-02-12T01:35:21.505Z,15.57
2023-02-12T01:38:07.814Z,15.63
2023-02-12T01:41:03.735Z,15.27
2023-02-12T01:44:06.757Z,16.57
2023-02-12T01:46:58.072Z,16.83
2023-02-12T01:49:46.841Z,17.70
2023-02-12T01:52:37.563Z,23.13
2023-02-12T01:55:24.676Z,21.97
2023-02-12T01:58:12.417Z,17.47
2023-02-12T02:01:00.422Z,16.87
2023-02-12T02:03:50.402Z,17.37
2023-02-12T02:06:43.118Z,16.53
2023-02-12T02:09:30.867Z,17.03
2023-02-12T02:12:34.808Z,31.70
2023-02-12T02:15:22.963Z,17.03
2023-02-12T02:18:13.906Z,15.40
2023-02-12T02:21:32.070Z,16.53
2023-02-12T02:24:57.934Z,15.07
2023-02-12T02:27:55.065Z,15.23
2023-02-12T02:30:47.831Z,18.50
2023-02-12T02:33:41.291Z,16.33
2023-02-12T02:36:35.664Z,16.23
2023-02-12T02:39:27.024Z,14.43
2023-02-12T02:42:22.429Z,14.20
2023-02-12T02:45:14.799Z,14.43
2023-02-12T02:48:06.527Z,14.70
2023-02-12T02:51:06.349Z,14.13
2023-02-12T02:53:59.189Z,13.50
2023-02-12T02:56:49.257Z,14.30
2023-02-12T02:59:41.317Z,13.53
2023-02-12T03:02:32.312Z,13.93
2023-02-12T03:05:26.148Z,12.73
2023-02-12T03:08:16.400Z,11.83
2023-02-12T03:11:08.252Z,13.10
2023-02-12T03:14:01.220Z,12.17
2023-02-12T03:16:59.727Z,13.20
2023-02-12T03:19:51.972Z,12.83
2023-02-12T03:22:45.666Z,12.80
2023-02-12T03:25:36.268Z,12.93
2023-02-12T03:28:28.190Z,11.90
2023-02-12T03:31:26.194Z,12.60
2023-02-12T03:34:18.538Z,12.27
2023-02-12T03:37:10.646Z,12.63
2023-02-12T03:40:04.522Z,12.10
2023-02-12T03:42:57.719Z,13.10
2023-02-12T03:45:50.857Z,12.77
2023-02-12T03:48:42.665Z,12.37
2023-02-12T03:51:35.732Z,12.07
2023-02-12T03:54:23.075Z,12.37
2023-02-12T03:57:14.354Z,11.87
2023-02-12T04:00:06.127Z,11.70
2023-02-12T04:02:53.597Z,11.80
2023-02-12T04:05:39.922Z,12.37
2023-02-12T04:08:28.910Z,11.13
2023-02-12T04:11:24.375Z,11.13
2023-02-12T04:14:22.196Z,11.33
2023-02-12T04:17:20.954Z,12.17
2023-02-12T04:20:17.473Z,11.90
2023-02-12T04:23:17.346Z,11.20
2023-02-12T04:26:10.878Z,12.67
2023-02-12T04:29:06.404Z,12.10
2023-02-12T04:31:59.157Z,12.93
2023-02-12T04:34:50.462Z,12.47
2023-02-12T04:37:41.170Z,12.60
2023-02-12T04:40:28.417Z,12.23
2023-02-12T04:43:15.127Z,12.17
2023-02-12T04:46:02.222Z,12.23
2023-02-12T04:48:55.013Z,12.27
2023-02-12T04:51:41.318Z,12.40
2023-02-12T04:54:27.825Z,12.30
2023-02-12T04:57:14.127Z,11.47
2023-02-12T05:00:00.578Z,12.67
2023-02-12T05:02:47.020Z,12.20
2023-02-12T05:05:35.956Z,11.87
2023-02-12T05:08:22.543Z,12.00
2023-02-12T05:11:10.349Z,12.33
2023-02-12T05:13:57.184Z,12.27
2023-02-12T05:16:43.662Z,12.60
2023-02-12T05:19:30.344Z,11.60
2023-02-12T05:22:20.441Z,11.53
2023-02-12T05:25:07.738Z,11.83
2023-02-12T05:27:56.618Z,10.83
2023-02-12T05:30:43.139Z,11.40
2023-02-12T05:33:30.106Z,10.93
2023-02-12T05:36:18.808Z,11.27
2023-02-12T05:39:08.086Z,11.93
2023-02-12T05:41:54.238Z,11.23
2023-02-12T05:44:40.765Z,11.57
2023-02-12T05:47:27.213Z,11.43
2023-02-12T05:50:13.598Z,11.57
2023-02-12T05:53:01.403Z,11.57
2023-02-12T05:55:49.342Z,11.67
2023-02-12T05:58:35.698Z,12.13
2023-02-12T06:01:24.462Z,11.53
2023-02-12T06:04:15.234Z,12.00
2023-02-12T06:07:02.008Z,11.80
2023-02-12T06:09:48.522Z,12.23
2023-02-12T06:12:36.669Z,11.23
2023-02-12T06:15:23.105Z,10.90
2023-02-12T06:18:09.559Z,11.40
2023-02-12T06:20:55.821Z,12.13
2023-02-12T06:23:42.387Z,11.50
2023-02-12T06:26:28.645Z,11.97
2023-02-12T06:29:16.328Z,12.73
2023-02-12T06:32:03.137Z,11.63
2023-02-12T06:34:49.936Z,11.70
2023-02-12T06:37:37.030Z,11.57
2023-02-12T06:40:23.537Z,12.70
2023-02-12T06:43:10.163Z,12.13
2023-02-12T06:46:01.636Z,11.70
2023-02-12T06:48:48.264Z,15.50
2023-02-12T06:51:36.401Z,13.73
2023-02-12T06:54:22.888Z,11.70
2023-02-12T06:57:09.999Z,10.60
2023-02-12T06:59:56.697Z,11.33
2023-02-12T07:02:44.823Z,10.57
2023-02-12T07:05:31.366Z,10.10
2023-02-12T07:08:17.921Z,11.53
2023-02-12T07:11:04.901Z,11.73
2023-02-12T07:13:51.226Z,11.17
2023-02-12T07:16:37.679Z,10.93
2023-02-12T07:19:25.714Z,11.67
2023-02-12T07:22:11.983Z,13.00
2023-02-12T07:24:58.424Z,12.20
2023-02-12T07:27:44.609Z,13.10
2023-02-12T07:30:31.142Z,11.67
2023-02-12T07:33:17.851Z,12.53
2023-02-12T07:36:08.292Z,12.67
2023-02-12T07:38:55.918Z,11.23
2023-02-12T07:41:42.469Z,11.67
2023-02-12T07:44:29.273Z,11.23
2023-02-12T07:47:16.887Z,12.33
2023-02-12T07:50:03.447Z,12.57
2023-02-12T07:52:51.531Z,12.40
2023-02-12T07:55:38.238Z,11.90
2023-02-12T07:58:24.442Z,12.40
2023-02-12T08:01:19.305Z,12.17
2023-02-12T08:04:07.799Z,12.43
2023-02-12T08:06:56.451Z,13.13
2023-02-12T08:09:44.277Z,11.20
2023-02-12T08:12:30.732Z,11.73
2023-02-12T08:15:17.181Z,11.57
2023-02-12T08:18:03.883Z,11.00
2023-02-12T08:20:50.371Z,14.20
2023-02-12T08:23:37.382Z,13.00
2023-02-12T08:26:29.536Z,11.87
2023-02-12T08:29:19.375Z,12.43
2023-02-12T08:32:10.518Z,14.20
2023-02-12T08:34:57.116Z,14.53
2023-02-12T08:37:43.434Z,13.10
2023-02-12T08:40:29.810Z,12.93
2023-02-12T08:43:17.724Z,12.53
2023-02-12T08:46:05.281Z,12.50
2023-02-12T08:48:55.081Z,13.10
2023-02-12T08:51:44.174Z,12.20
2023-02-12T08:54:32.589Z,11.43
2023-02-12T08:57:19.438Z,12.40
2023-02-12T09:00:09.162Z,12.47
2023-02-12T09:02:55.741Z,11.87
2023-02-12T09:05:42.656Z,12.60
2023-02-12T09:08:29.003Z,11.27
2023-02-12T09:11:17.463Z,13.07
2023-02-12T09:14:06.833Z,13.47
2023-02-12T09:16:57.235Z,12.60
2023-02-12T09:19:44.188Z,12.63
2023-02-12T09:22:30.640Z,12.73
2023-02-12T09:25:17.046Z,12.80
2023-02-12T09:28:04.035Z,12.00
2023-02-12T09:30:50.343Z,13.07
2023-02-12T09:33:38.730Z,13.17
2023-02-12T09:36:25.654Z,12.07
2023-02-12T09:39:12.273Z,12.97
2023-02-12T09:42:27.405Z,12.23
2023-02-12T09:45:21.549Z,11.73
2023-02-12T09:48:21.905Z,12.57
2023-02-12T09:51:11.007Z,12.50
2023-02-12T09:54:04.130Z,12.00
2023-02-12T09:56:53.386Z,11.57
2023-02-12T09:59:44.293Z,12.70
2023-02-12T10:02:30.834Z,11.83
2023-02-12T10:05:20.563Z,11.97
2023-02-12T10:08:24.806Z,13.00
2023-02-12T10:11:30.961Z,12.20
2023-02-12T10:14:38.114Z,13.47
2023-02-12T10:17:32.327Z,13.17
2023-02-12T10:20:53.223Z,12.13
2023-02-12T10:24:01.441Z,13.57
2023-02-12T10:26:50.141Z,12.93
2023-02-12T10:29:42.360Z,12.40
2023-02-12T10:32:31.998Z,11.97
2023-02-12T10:35:19.851Z,13.53
2023-02-12T10:38:15.011Z,14.40
2023-02-12T10:41:02.778Z,20.80
2023-02-12T10:43:49.491Z,14.47
2023-02-12T10:46:35.798Z,13.07
2023-02-12T10:49:23.209Z,12.73
2023-02-12T10:52:18.129Z,12.60
2023-02-12T10:55:23.650Z,12.93
2023-02-12T10:58:22.763Z,12.83
2023-02-12T11:01:17.760Z,12.60
2023-02-12T11:04:22.330Z,11.70
2023-02-12T11:07:10.719Z,12.20
2023-02-12T11:09:58.392Z,10.70
2023-02-12T11:12:48.352Z,11.13
2023-02-12T11:15:39.701Z,12.60
2023-02-12T11:18:28.349Z,11.60
2023-02-12T11:21:15.046Z,13.43
2023-02-12T11:24:23.247Z,13.03
2023-02-12T11:27:23.210Z,14.20
2023-02-12T11:30:16.406Z,13.60
2023-02-12T11:33:18.351Z,12.43
2023-02-12T11:36:14.095Z,14.37
2023-02-12T11:39:01.551Z,14.43
2023-02-12T11:41:52.649Z,14.37
2023-02-12T11:44:42.394Z,12.83
2023-02-12T11:47:33.769Z,11.37
2023-02-12T11:50:28.073Z,11.40
2023-02-12T11:53:24.048Z,11.10
2023-02-12T11:56:13.339Z,11.63
2023-02-12T11:59:17.595Z,11.50
2023-02-12T12:02:17.015Z,11.90
2023-02-12T12:05:10.428Z,11.70
2023-02-12T12:08:03.344Z,12.57
2023-02-12T12:10:55.041Z,11.60
2023-02-12T12:13:48.277Z,11.50
2023-02-12T12:16:56.538Z,10.33
2023-02-12T12:19:55.945Z,10.47
2023-02-12T12:22:47.835Z,10.37
2023-02-12T12:25:43.140Z,11.57
2023-02-12T12:28:36.005Z,10.03
2023-02-12T12:31:29.033Z,18.53
2023-02-12T12:34:17.919Z,13.23
2023-02-12T12:37:22.452Z,13.03
2023-02-12T12:40:35.592Z,11.90
2023-02-12T12:43:33.509Z,10.30
2023-02-12T12:46:43.050Z,11.17
2023-02-12T12:49:58.832Z,11.40
2023-02-12T12:53:01.650Z,10.63
2023-02-12T12:56:08.514Z,10.70
2023-02-12T12:59:19.616Z,10.20
2023-02-12T13:02:45.977Z,10.70
2023-02-12T13:05:58.812Z,28.67
2023-02-12T13:09:09.401Z,11.03
2023-02-12T13:12:17.199Z,11.07
2023-02-12T13:15:16.653Z,11.50
2023-02-12T13:18:12.869Z,10.47
2023-02-12T13:21:10.051Z,10.73
2023-02-12T13:24:03.014Z,10.60
2023-02-12T13:26:53.682Z,9.13
2023-02-12T13:29:44.097Z,12.03
2023-02-12T13:32:35.997Z,15.60
2023-02-12T13:35:24.660Z,11.90
2023-02-12T13:38:19.933Z,11.00
2023-02-12T13:41:08.943Z,13.07
2023-02-12T13:44:05.701Z,13.20
2023-02-12T13:46:58.117Z,10.30
2023-02-12T13:49:53.622Z,10.77
2023-02-12T13:52:46.082Z,11.67
2023-02-12T13:55:39.335Z,12.40
2023-02-12T13:58:52.148Z,11.83
2023-02-12T14:01:45.864Z,10.53
2023-02-12T14:04:35.327Z,10.57
2023-02-12T14:07:24.497Z,10.10
2023-02-12T14:10:22.741Z,9.83
2023-02-12T14:13:17.444Z,10.37
2023-02-12T14:16:22.344Z,15.33
2023-02-12T14:19:46.307Z,9.53
2023-02-12T14:23:26.729Z,8.67
2023-02-12T14:26:16.247Z,9.53
2023-02-12T14:29:05.669Z,10.80
2023-02-12T14:31:52.092Z,9.43
2023-02-12T14:34:40.495Z,9.77
2023-02-12T14:37:37.986Z,8.97
2023-02-12T14:40:42.896Z,8.87
2023-02-12T14:43:56.858Z,9.57
2023-02-12T14:46:49.278Z,9.07
2023-02-12T14:49:42.187Z,9.60
2023-02-12T14:52:33.328Z,9.43
2023-02-12T14:55:29.984Z,10.73
2023-02-12T14:58:21.008Z,14.50
2023-02-12T15:01:09.282Z,9.93
2023-02-12T15:03:58.764Z,8.73
2023-02-12T15:06:52.601Z,8.13
2023-02-12T15:09:47.160Z,8.17
2023-02-12T15:12:38.768Z,9.27
2023-02-12T15:15:32.548Z,8.20
2023-02-12T15:18:26.493Z,8.87
2023-02-12T15:21:20.963Z,8.60
2023-02-12T15:24:09.816Z,8.03
2023-02-12T15:26:58.675Z,8.67
2023-02-12T15:29:47.769Z,16.83
2023-02-12T15:32:37.478Z,12.67
2023-02-12T15:35:33.503Z,8.80
2023-02-12T15:38:23.739Z,9.20
2023-02-12T15:41:24.586Z,8.17
2023-02-12T15:44:24.363Z,8.53
2023-02-12T15:47:16.301Z,9.67
2023-02-12T15:50:02.964Z,14.17
2023-02-12T15:52:52.219Z,10.60
2023-02-12T15:55:43.376Z,10.43
2023-02-12T15:58:31.648Z,11.27
2023-02-12T16:01:20.412Z,10.20
2023-02-12T16:04:09.278Z,11.37
2023-02-12T16:06:56.358Z,11.02
2023-02-12T16:09:44.930Z,11.33
2023-02-12T16:12:34.197Z,13.23
2023-02-12T16:15:30.757Z,14.53
2023-02-12T16:18:27.345Z,13.97
2023-02-12T16:21:17.243Z,14.43
2023-02-12T16:24:03.935Z,13.93
2023-02-12T16:26:51.832Z,13.13
2023-02-12T16:29:44.896Z,11.20
2023-02-12T16:32:35.680Z,11.53
2023-02-12T16:35:29.692Z,11.37
2023-02-12T16:38:41.157Z,10.13
2023-02-12T16:41:30.676Z,11.20
2023-02-12T16:44:31.485Z,12.20
2023-02-12T16:47:23.527Z,12.67
2023-02-12T16:50:17.303Z,22.40
2023-02-12T16:53:07.533Z,15.33
2023-02-12T16:55:55.547Z,29.43
2023-02-12T16:58:42.117Z,15.80
2023-02-12T17:01:33.472Z,12.37
2023-02-12T17:04:19.978Z,11.47
2023-02-12T17:07:17.972Z,12.10
2023-02-12T17:10:05.006Z,12.37
2023-02-12T17:12:54.670Z,11.93
2023-02-12T17:15:46.567Z,12.13
2023-02-12T17:18:36.007Z,12.80
2023-02-12T17:21:26.201Z,12.60
2023-02-12T17:24:19.004Z,11.93
2023-02-12T17:27:07.909Z,13.17
2023-02-12T17:29:54.515Z,13.27
2023-02-12T17:32:41.052Z,13.40
2023-02-12T17:35:29.134Z,12.93
2023-02-12T17:38:15.600Z,13.47
2023-02-12T17:41:02.212Z,19.00
2023-02-12T17:43:48.538Z,13.17
2023-02-12T17:46:35.515Z,13.30
2023-02-12T17:49:22.718Z,12.63
2023-02-12T17:52:10.690Z,14.30
2023-02-12T17:54:57.002Z,13.33
2023-02-12T17:57:43.413Z,13.07
2023-02-12T18:00:30.831Z,13.67
2023-02-12T18:03:17.132Z,14.50
2023-02-12T18:06:05.506Z,13.57
2023-02-12T18:08:53.843Z,14.23
2023-02-12T18:11:42.177Z,12.80
2023-02-12T18:14:28.667Z,15.33
2023-02-12T18:17:15.335Z,14.93
2023-02-12T18:20:01.746Z,17.37
2023-02-12T18:22:50.133Z,14.90
2023-02-12T18:25:41.824Z,13.70
2023-02-12T18:28:28.600Z,14.37
2023-02-12T18:31:15.807Z,14.87
2023-02-12T18:34:02.615Z,15.53
2023-02-12T18:36:49.057Z,16.20
2023-02-12T18:39:35.697Z,18.60
2023-02-12T18:42:23.463Z,15.07
2023-02-12T18:45:10.442Z,15.33
2023-02-12T18:47:56.811Z,15.47
2023-02-12T18:50:44.412Z,13.97
2023-02-12T18:53:33.255Z,27.70
2023-02-12T18:56:21.271Z,15.83
2023-02-12T18:59:11.228Z,17.83
2023-02-12T19:01:57.909Z,18.27
2023-02-12T19:04:45.875Z,15.20
2023-02-12T19:07:32.682Z,14.80
2023-02-12T19:10:19.422Z,14.27
2023-02-12T19:13:06.335Z,14.33
2023-02-12T19:15:53.934Z,13.97
2023-02-12T19:18:40.753Z,15.63
2023-02-12T19:21:27.155Z,17.07
2023-02-12T19:24:15.257Z,15.77
2023-02-12T19:27:01.946Z,15.00
2023-02-12T19:29:48.407Z,16.83
2023-02-12T19:32:39.313Z,16.57
2023-02-12T19:35:26.036Z,16.60
2023-02-12T19:38:13.014Z,15.63
2023-02-12T19:41:04.439Z,14.97
2023-02-12T19:43:54.531Z,13.13
2023-02-12T19:46:42.686Z,14.23
2023-02-12T19:49:30.434Z,12.00
2023-02-12T19:52:17.001Z,11.67
2023-02-12T19:55:06.668Z,12.27
2023-02-12T19:57:53.397Z,11.43
2023-02-12T20:00:41.596Z,12.47
2023-02-12T20:03:28.709Z,13.60
2023-02-12T20:06:20.028Z,11.70
2023-02-12T20:09:08.164Z,11.40
2023-02-12T20:11:54.601Z,12.80
2023-02-12T20:14:40.930Z,11.07
2023-02-12T20:17:27.951Z,11.37
2023-02-12T20:20:14.875Z,11.50
2023-02-12T20:23:02.922Z,11.43
2023-02-12T20:25:49.552Z,10.40
2023-02-12T20:28:37.135Z,11.53
2023-02-12T20:31:27.185Z,11.90
2023-02-12T20:34:15.704Z,11.00
2023-02-12T20:37:02.365Z,11.53
2023-02-12T20:39:49.959Z,11.33
2023-02-12T20:42:37.839Z,10.00
2023-02-12T20:45:24.611Z,11.30
2023-02-12T20:48:11.323Z,11.33
2023-02-12T20:51:03.090Z,10.70
2023-02-12T20:53:50.204Z,14.10
2023-02-12T20:56:40.848Z,17.20
2023-02-12T20:59:27.727Z,11.30
2023-02-12T21:02:14.522Z,13.03
2023-02-12T21:05:01.046Z,12.33
2023-02-12T21:07:49.068Z,11.50
2023-02-12T21:10:35.981Z,12.97
2023-02-12T21:13:25.377Z,12.10
2023-02-12T21:16:13.669Z,12.93
2023-02-12T21:19:00.584Z,12.30
2023-02-12T21:21:47.768Z,12.93
2023-02-12T21:24:34.237Z,11.83
2023-02-12T21:27:20.928Z,12.57
2023-02-12T21:30:10.564Z,14.53
2023-02-12T21:32:57.145Z,14.07
2023-02-12T21:35:43.637Z,13.50
2023-02-12T21:38:32.912Z,14.13
2023-02-12T21:41:22.313Z,14.47
2023-02-12T21:44:11.845Z,14.23
2023-02-12T21:47:00.091Z,14.60
2023-02-12T21:49:46.827Z,14.23
2023-02-12T21:52:34.452Z,14.20
2023-02-12T21:55:21.083Z,14.27
2023-02-12T21:58:07.512Z,12.70
2023-02-12T22:00:54.144Z,16.00
2023-02-12T22:03:46.695Z,15.00
2023-02-12T22:06:37.072Z,15.87
2023-02-12T22:09:24.703Z,15.80
2023-02-12T22:12:11.564Z,15.90
2023-02-12T22:14:58.189Z,14.77
2023-02-12T22:17:44.687Z,15.53
2023-02-12T22:20:35.145Z,15.13
2023-02-12T22:23:21.556Z,14.10
2023-02-12T22:26:11.124Z,14.87
2023-02-12T22:29:02.500Z,14.00
2023-02-12T22:31:48.996Z,13.70
2023-02-12T22:34:37.548Z,13.77
2023-02-12T22:37:30.744Z,13.33
2023-02-12T22:40:17.308Z,16.33
2023-02-12T22:43:03.717Z,13.80
2023-02-12T22:45:50.049Z,14.07
2023-02-12T22:48:37.438Z,14.83
2023-02-12T22:51:26.763Z,14.30
2023-02-12T22:54:17.452Z,14.20
2023-02-12T22:57:04.072Z,15.30
2023-02-12T22:59:50.714Z,14.97
2023-02-12T23:02:37.810Z,15.83
2023-02-12T23:05:24.178Z,17.13
2023-02-12T23:08:10.685Z,16.93
2023-02-12T23:10:59.064Z,17.07
2023-02-12T23:13:46.149Z,17.73
2023-02-12T23:16:33.408Z,15.93
2023-02-12T23:19:23.248Z,17.93
2023-02-12T23:22:10.065Z,15.23
2023-02-12T23:24:57.095Z,16.57
2023-02-12T23:27:45.109Z,13.93
2023-02-12T23:30:32.094Z,13.40
2023-02-12T23:33:19.107Z,13.43
2023-02-12T23:36:06.342Z,13.33
2023-02-12T23:38:53.014Z,12.77
2023-02-12T23:41:39.813Z,13.17
2023-02-12T23:44:27.472Z,12.47
2023-02-12T23:47:17.942Z,12.50
2023-02-12T23:50:05.048Z,11.77
2023-02-12T23:52:52.281Z,11.47
2023-02-12T23:55:39.284Z,11.50
2023-02-12T23:58:26.091Z,10.97
